sensor_id;sensor_type;location;lat;lon;timestamp;P1;durP1;ratioP1;P2;durP2;ratioP2
51686;SDS011;37774;52.192;4.584;2023-01-29T00:00:53;16.85;;;8.20;;
51686;SDS011;37774;52.192;4.584;2023-01-29T00:03:19;19.50;;;8.63;;
51686;SDS011;37774;52.192;4.584;2023-01-29T00:05:46;28.42;;;9.43;;
51686;SDS011;37774;52.192;4.584;2023-01-29T00:08:13;19.55;;;8.40;;
51686;SDS011;37774;52.192;4.584;2023-01-29T00:10:40;22.70;;;8.07;;
51686;SDS011;37774;52.192;4.584;2023-01-29T00:13:07;14.75;;;7.25;;
51686;SDS011;37774;52.192;4.584;2023-01-29T00:15:34;17.73;;;9.13;;
51686;SDS011;37774;52.192;4.584;2023-01-29T00:18:02;15.02;;;7.05;;
51686;SDS011;37774;52.192;4.584;2023-01-29T00:20:29;16.10;;;7.57;;
51686;SDS011;37774;52.192;4.584;2023-01-29T00:22:58;14.23;;;8.00;;
51686;SDS011;37774;52.192;4.584;2023-01-29T00:25:25;18.98;;;7.53;;
51686;SDS011;37774;52.192;4.584;2023-01-29T00:27:51;17.30;;;7.95;;
51686;SDS011;37774;52.192;4.584;2023-01-29T00:30:18;13.77;;;6.85;;
51686;SDS011;37774;52.192;4.584;2023-01-29T00:32:45;20.80;;;7.68;;
51686;SDS011;37774;52.192;4.584;2023-01-29T00:35:14;15.75;;;8.40;;
51686;SDS011;37774;52.192;4.584;2023-01-29T00:37:41;20.48;;;9.05;;
51686;SDS011;37774;52.192;4.584;2023-01-29T00:40:08;18.88;;;7.82;;
51686;SDS011;37774;52.192;4.584;2023-01-29T00:42:35;17.30;;;8.77;;
51686;SDS011;37774;52.192;4.584;2023-01-29T00:45:19;13.88;;;6.90;;
51686;SDS011;37774;52.192;4.584;2023-01-29T00:47:46;19.73;;;9.18;;
51686;SDS011;37774;52.192;4.584;2023-01-29T00:50:15;18.20;;;8.52;;
51686;SDS011;37774;52.192;4.584;2023-01-29T00:52:42;17.15;;;7.82;;
51686;SDS011;37774;52.192;4.584;2023-01-29T00:55:09;18.13;;;7.90;;
51686;SDS011;37774;52.192;4.584;2023-01-29T00:57:36;18.30;;;8.40;;
51686;SDS011;37774;52.192;4.584;2023-01-29T01:00:05;20.35;;;8.40;;
51686;SDS011;37774;52.192;4.584;2023-01-29T01:02:34;21.73;;;8.32;;
51686;SDS011;37774;52.192;4.584;2023-01-29T01:05:20;20.30;;;8.52;;
51686;SDS011;37774;52.192;4.584;2023-01-29T01:07:48;16.60;;;7.00;;
51686;SDS011;37774;52.192;4.584;2023-01-29T01:10:17;17.08;;;7.38;;
51686;SDS011;37774;52.192;4.584;2023-01-29T01:12:49;17.92;;;7.68;;
51686;SDS011;37774;52.192;4.584;2023-01-29T01:15:19;14.88;;;7.80;;
51686;SDS011;37774;52.192;4.584;2023-01-29T01:17:46;16.83;;;7.93;;
51686;SDS011;37774;52.192;4.584;2023-01-29T01:20:14;18.48;;;9.38;;
51686;SDS011;37774;52.192;4.584;2023-01-29T01:22:42;19.45;;;8.02;;
51686;SDS011;37774;52.192;4.584;2023-01-29T01:25:09;19.27;;;7.82;;
51686;SDS011;37774;52.192;4.584;2023-01-29T01:27:36;17.30;;;8.20;;
51686;SDS011;37774;52.192;4.584;2023-01-29T01:30:07;14.75;;;8.05;;
51686;SDS011;37774;52.192;4.584;2023-01-29T01:32:36;17.70;;;8.18;;
51686;SDS011;37774;52.192;4.584;2023-01-29T01:35:04;25.38;;;7.40;;
51686;SDS011;37774;52.192;4.584;2023-01-29T01:37:32;21.70;;;8.27;;
51686;SDS011;37774;52.192;4.584;2023-01-29T01:40:03;15.45;;;7.15;;
51686;SDS011;37774;52.192;4.584;2023-01-29T01:42:37;25.00;;;9.27;;
51686;SDS011;37774;52.192;4.584;2023-01-29T01:45:07;15.55;;;7.28;;
51686;SDS011;37774;52.192;4.584;2023-01-29T01:47:43;16.45;;;6.85;;
51686;SDS011;37774;52.192;4.584;2023-01-29T01:50:13;22.80;;;8.98;;
51686;SDS011;37774;52.192;4.584;2023-01-29T01:52:44;17.00;;;7.88;;
51686;SDS011;37774;52.192;4.584;2023-01-29T01:55:16;16.08;;;7.40;;
51686;SDS011;37774;52.192;4.584;2023-01-29T01:57:48;14.27;;;7.97;;
51686;SDS011;37774;52.192;4.584;2023-01-29T02:00:20;14.60;;;7.78;;
51686;SDS011;37774;52.192;4.584;2023-01-29T02:02:50;18.55;;;8.68;;
51686;SDS011;37774;52.192;4.584;2023-01-29T02:05:34;14.32;;;8.63;;
51686;SDS011;37774;52.192;4.584;2023-01-29T02:08:23;18.38;;;8.48;;
51686;SDS011;37774;52.192;4.584;2023-01-29T02:11:14;19.85;;;8.93;;
51686;SDS011;37774;52.192;4.584;2023-01-29T02:13:41;20.55;;;9.73;;
51686;SDS011;37774;52.192;4.584;2023-01-29T02:16:08;18.90;;;8.65;;
51686;SDS011;37774;52.192;4.584;2023-01-29T02:18:35;21.05;;;7.88;;
51686;SDS011;37774;52.192;4.584;2023-01-29T02:21:06;19.55;;;8.25;;
51686;SDS011;37774;52.192;4.584;2023-01-29T02:24:10;20.10;;;8.77;;
51686;SDS011;37774;52.192;4.584;2023-01-29T02:26:58;18.75;;;9.70;;
51686;SDS011;37774;52.192;4.584;2023-01-29T02:29:39;18.65;;;8.27;;
51686;SDS011;37774;52.192;4.584;2023-01-29T02:32:21;18.13;;;8.25;;
51686;SDS011;37774;52.192;4.584;2023-01-29T02:34:57;16.10;;;8.32;;
51686;SDS011;37774;52.192;4.584;2023-01-29T02:37:52;13.38;;;7.53;;
51686;SDS011;37774;52.192;4.584;2023-01-29T02:40:24;22.17;;;10.00;;
51686;SDS011;37774;52.192;4.584;2023-01-29T02:42:56;23.73;;;9.73;;
51686;SDS011;37774;52.192;4.584;2023-01-29T02:45:32;22.40;;;10.82;;
51686;SDS011;37774;52.192;4.584;2023-01-29T02:48:04;21.05;;;10.02;;
51686;SDS011;37774;52.192;4.584;2023-01-29T02:50:33;25.88;;;11.45;;
51686;SDS011;37774;52.192;4.584;2023-01-29T02:53:07;28.58;;;10.02;;
51686;SDS011;37774;52.192;4.584;2023-01-29T02:55:41;23.23;;;10.07;;
51686;SDS011;37774;52.192;4.584;2023-01-29T02:58:14;23.58;;;10.23;;
51686;SDS011;37774;52.192;4.584;2023-01-29T03:00:47;23.42;;;11.75;;
51686;SDS011;37774;52.192;4.584;2023-01-29T03:03:17;18.52;;;9.63;;
51686;SDS011;37774;52.192;4.584;2023-01-29T03:05:48;27.77;;;11.15;;
51686;SDS011;37774;52.192;4.584;2023-01-29T03:08:22;23.50;;;11.00;;
51686;SDS011;37774;52.192;4.584;2023-01-29T03:11:02;25.45;;;11.15;;
51686;SDS011;37774;52.192;4.584;2023-01-29T03:13:32;27.00;;;11.02;;
51686;SDS011;37774;52.192;4.584;2023-01-29T03:16:05;33.17;;;11.88;;
51686;SDS011;37774;52.192;4.584;2023-01-29T03:18:39;25.97;;;11.40;;
51686;SDS011;37774;52.192;4.584;2023-01-29T03:21:12;30.60;;;11.43;;
51686;SDS011;37774;52.192;4.584;2023-01-29T03:24:00;35.28;;;12.15;;
51686;SDS011;37774;52.192;4.584;2023-01-29T03:26:46;27.83;;;11.52;;
51686;SDS011;37774;52.192;4.584;2023-01-29T03:29:31;20.20;;;10.68;;
51686;SDS011;37774;52.192;4.584;2023-01-29T03:32:19;28.92;;;13.30;;
51686;SDS011;37774;52.192;4.584;2023-01-29T03:34:52;31.13;;;12.50;;
51686;SDS011;37774;52.192;4.584;2023-01-29T03:37:25;29.65;;;11.45;;
51686;SDS011;37774;52.192;4.584;2023-01-29T03:39:55;23.45;;;10.40;;
51686;SDS011;37774;52.192;4.584;2023-01-29T03:42:23;36.33;;;14.45;;
51686;SDS011;37774;52.192;4.584;2023-01-29T03:44:56;35.97;;;13.68;;
51686;SDS011;37774;52.192;4.584;2023-01-29T03:47:36;33.05;;;13.20;;
51686;SDS011;37774;52.192;4.584;2023-01-29T03:50:10;31.02;;;13.48;;
51686;SDS011;37774;52.192;4.584;2023-01-29T03:55:15;32.95;;;13.38;;
51686;SDS011;37774;52.192;4.584;2023-01-29T03:57:49;33.30;;;13.52;;
51686;SDS011;37774;52.192;4.584;2023-01-29T04:00:22;30.92;;;12.60;;
51686;SDS011;37774;52.192;4.584;2023-01-29T04:02:56;29.67;;;13.35;;
51686;SDS011;37774;52.192;4.584;2023-01-29T04:05:32;29.75;;;13.57;;
51686;SDS011;37774;52.192;4.584;2023-01-29T04:08:05;35.17;;;14.55;;
51686;SDS011;37774;52.192;4.584;2023-01-29T04:10:38;31.67;;;13.43;;
51686;SDS011;37774;52.192;4.584;2023-01-29T04:13:09;29.95;;;11.88;;
51686;SDS011;37774;52.192;4.584;2023-01-29T04:15:39;34.17;;;12.85;;
51686;SDS011;37774;52.192;4.584;2023-01-29T04:18:12;28.83;;;12.85;;
51686;SDS011;37774;52.192;4.584;2023-01-29T04:20:39;31.25;;;12.90;;
51686;SDS011;37774;52.192;4.584;2023-01-29T04:23:16;30.73;;;11.70;;
51686;SDS011;37774;52.192;4.584;2023-01-29T04:25:46;28.20;;;13.13;;
51686;SDS011;37774;52.192;4.584;2023-01-29T04:28:33;31.38;;;12.55;;
51686;SDS011;37774;52.192;4.584;2023-01-29T04:31:14;30.20;;;12.65;;
51686;SDS011;37774;52.192;4.584;2023-01-29T04:33:43;27.90;;;11.68;;
51686;SDS011;37774;52.192;4.584;2023-01-29T04:36:23;25.30;;;12.65;;
51686;SDS011;37774;52.192;4.584;2023-01-29T04:39:01;35.35;;;13.10;;
51686;SDS011;37774;52.192;4.584;2023-01-29T04:41:37;30.60;;;11.95;;
51686;SDS011;37774;52.192;4.584;2023-01-29T04:44:14;27.48;;;12.07;;
51686;SDS011;37774;52.192;4.584;2023-01-29T04:46:45;31.42;;;11.90;;
51686;SDS011;37774;52.192;4.584;2023-01-29T04:49:19;28.33;;;12.88;;
51686;SDS011;37774;52.192;4.584;2023-01-29T04:52:00;33.55;;;12.60;;
51686;SDS011;37774;52.192;4.584;2023-01-29T04:54:35;28.75;;;12.82;;
51686;SDS011;37774;52.192;4.584;2023-01-29T04:57:17;34.53;;;12.80;;
51686;SDS011;37774;52.192;4.584;2023-01-29T04:59:52;27.85;;;10.88;;
51686;SDS011;37774;52.192;4.584;2023-01-29T05:02:24;27.13;;;11.77;;
51686;SDS011;37774;52.192;4.584;2023-01-29T05:04:53;30.50;;;12.82;;
51686;SDS011;37774;52.192;4.584;2023-01-29T05:07:23;33.35;;;10.93;;
51686;SDS011;37774;52.192;4.584;2023-01-29T05:09:54;27.00;;;12.57;;
51686;SDS011;37774;52.192;4.584;2023-01-29T05:12:21;27.73;;;12.23;;
51686;SDS011;37774;52.192;4.584;2023-01-29T05:14:52;26.50;;;10.60;;
51686;SDS011;37774;52.192;4.584;2023-01-29T05:17:23;27.42;;;12.38;;
51686;SDS011;37774;52.192;4.584;2023-01-29T05:19:50;25.65;;;11.38;;
51686;SDS011;37774;52.192;4.584;2023-01-29T05:22:18;32.83;;;12.77;;
51686;SDS011;37774;52.192;4.584;2023-01-29T05:24:47;28.67;;;12.20;;
51686;SDS011;37774;52.192;4.584;2023-01-29T05:27:15;31.02;;;12.70;;
51686;SDS011;37774;52.192;4.584;2023-01-29T05:30:01;37.33;;;12.93;;
51686;SDS011;37774;52.192;4.584;2023-01-29T05:32:28;25.90;;;12.57;;
51686;SDS011;37774;52.192;4.584;2023-01-29T05:34:55;32.63;;;13.13;;
51686;SDS011;37774;52.192;4.584;2023-01-29T05:37:23;30.60;;;12.38;;
51686;SDS011;37774;52.192;4.584;2023-01-29T05:39:50;31.00;;;13.18;;
51686;SDS011;37774;52.192;4.584;2023-01-29T05:42:17;31.83;;;13.70;;
51686;SDS011;37774;52.192;4.584;2023-01-29T05:44:44;31.60;;;12.75;;
51686;SDS011;37774;52.192;4.584;2023-01-29T05:47:11;30.23;;;11.70;;
51686;SDS011;37774;52.192;4.584;2023-01-29T05:49:38;30.25;;;12.52;;
51686;SDS011;37774;52.192;4.584;2023-01-29T05:52:05;23.25;;;10.43;;
51686;SDS011;37774;52.192;4.584;2023-01-29T05:54:33;31.27;;;12.60;;
51686;SDS011;37774;52.192;4.584;2023-01-29T05:56:59;29.52;;;12.98;;
51686;SDS011;37774;52.192;4.584;2023-01-29T05:59:26;29.17;;;12.23;;
51686;SDS011;37774;52.192;4.584;2023-01-29T06:01:55;37.10;;;14.18;;
51686;SDS011;37774;52.192;4.584;2023-01-29T06:04:22;29.33;;;13.13;;
51686;SDS011;37774;52.192;4.584;2023-01-29T06:06:48;25.20;;;12.35;;
51686;SDS011;37774;52.192;4.584;2023-01-29T06:09:15;29.58;;;11.90;;
51686;SDS011;37774;52.192;4.584;2023-01-29T06:11:44;26.50;;;12.32;;
51686;SDS011;37774;52.192;4.584;2023-01-29T06:14:11;32.58;;;14.10;;
51686;SDS011;37774;52.192;4.584;2023-01-29T06:16:37;26.85;;;11.73;;
51686;SDS011;37774;52.192;4.584;2023-01-29T06:19:04;32.13;;;12.82;;
51686;SDS011;37774;52.192;4.584;2023-01-29T06:21:31;27.15;;;11.70;;
51686;SDS011;37774;52.192;4.584;2023-01-29T06:23:58;32.38;;;13.55;;
51686;SDS011;37774;52.192;4.584;2023-01-29T06:26:24;31.10;;;13.27;;
51686;SDS011;37774;52.192;4.584;2023-01-29T06:28:52;33.70;;;13.23;;
51686;SDS011;37774;52.192;4.584;2023-01-29T06:31:19;29.88;;;13.32;;
51686;SDS011;37774;52.192;4.584;2023-01-29T06:33:46;32.90;;;13.30;;
51686;SDS011;37774;52.192;4.584;2023-01-29T06:36:13;31.15;;;13.35;;
51686;SDS011;37774;52.192;4.584;2023-01-29T06:38:40;30.02;;;13.43;;
51686;SDS011;37774;52.192;4.584;2023-01-29T06:41:07;38.17;;;14.68;;
51686;SDS011;37774;52.192;4.584;2023-01-29T06:43:36;27.20;;;13.52;;
51686;SDS011;37774;52.192;4.584;2023-01-29T06:46:05;34.03;;;13.98;;
51686;SDS011;37774;52.192;4.584;2023-01-29T06:48:33;33.10;;;14.43;;
51686;SDS011;37774;52.192;4.584;2023-01-29T06:51:01;31.40;;;12.82;;
51686;SDS011;37774;52.192;4.584;2023-01-29T06:53:28;30.08;;;12.60;;
51686;SDS011;37774;52.192;4.584;2023-01-29T06:55:56;32.85;;;12.95;;
51686;SDS011;37774;52.192;4.584;2023-01-29T06:58:23;31.10;;;13.23;;
51686;SDS011;37774;52.192;4.584;2023-01-29T07:00:50;39.40;;;13.43;;
51686;SDS011;37774;52.192;4.584;2023-01-29T07:03:18;28.60;;;12.90;;
51686;SDS011;37774;52.192;4.584;2023-01-29T07:05:49;32.15;;;14.68;;
51686;SDS011;37774;52.192;4.584;2023-01-29T07:08:16;29.90;;;13.25;;
51686;SDS011;37774;52.192;4.584;2023-01-29T07:10:46;31.58;;;14.18;;
51686;SDS011;37774;52.192;4.584;2023-01-29T07:13:13;29.52;;;13.80;;
51686;SDS011;37774;52.192;4.584;2023-01-29T07:15:40;24.92;;;13.48;;
51686;SDS011;37774;52.192;4.584;2023-01-29T07:18:08;29.50;;;12.77;;
51686;SDS011;37774;52.192;4.584;2023-01-29T07:20:38;34.38;;;13.60;;
51686;SDS011;37774;52.192;4.584;2023-01-29T07:23:07;32.80;;;13.52;;
51686;SDS011;37774;52.192;4.584;2023-01-29T07:25:36;28.77;;;13.10;;
51686;SDS011;37774;52.192;4.584;2023-01-29T07:28:03;28.88;;;14.23;;
51686;SDS011;37774;52.192;4.584;2023-01-29T07:30:30;31.02;;;13.88;;
51686;SDS011;37774;52.192;4.584;2023-01-29T07:32:59;35.40;;;13.55;;
51686;SDS011;37774;52.192;4.584;2023-01-29T07:35:27;27.10;;;12.32;;
51686;SDS011;37774;52.192;4.584;2023-01-29T07:37:55;30.70;;;12.77;;
51686;SDS011;37774;52.192;4.584;2023-01-29T07:40:22;30.88;;;14.23;;
51686;SDS011;37774;52.192;4.584;2023-01-29T07:42:49;37.72;;;14.57;;
51686;SDS011;37774;52.192;4.584;2023-01-29T07:45:16;34.42;;;14.52;;
51686;SDS011;37774;52.192;4.584;2023-01-29T07:47:42;34.22;;;14.32;;
51686;SDS011;37774;52.192;4.584;2023-01-29T07:50:09;38.35;;;14.93;;
51686;SDS011;37774;52.192;4.584;2023-01-29T07:52:36;34.50;;;13.27;;
51686;SDS011;37774;52.192;4.584;2023-01-29T07:55:05;38.78;;;14.82;;
51686;SDS011;37774;52.192;4.584;2023-01-29T07:57:32;27.55;;;13.35;;
51686;SDS011;37774;52.192;4.584;2023-01-29T07:59:59;31.90;;;13.68;;
51686;SDS011;37774;52.192;4.584;2023-01-29T08:02:25;36.35;;;15.07;;
51686;SDS011;37774;52.192;4.584;2023-01-29T08:04:52;33.60;;;13.38;;
51686;SDS011;37774;52.192;4.584;2023-01-29T08:07:19;35.20;;;14.65;;
51686;SDS011;37774;52.192;4.584;2023-01-29T08:09:46;29.42;;;13.55;;
51686;SDS011;37774;52.192;4.584;2023-01-29T08:12:14;36.50;;;14.27;;
51686;SDS011;37774;52.192;4.584;2023-01-29T08:14:41;35.40;;;14.98;;
51686;SDS011;37774;52.192;4.584;2023-01-29T08:17:09;30.58;;;14.27;;
51686;SDS011;37774;52.192;4.584;2023-01-29T08:19:36;31.38;;;14.95;;
51686;SDS011;37774;52.192;4.584;2023-01-29T08:22:03;35.35;;;14.75;;
51686;SDS011;37774;52.192;4.584;2023-01-29T08:24:31;32.85;;;13.07;;
51686;SDS011;37774;52.192;4.584;2023-01-29T08:26:58;32.58;;;15.05;;
51686;SDS011;37774;52.192;4.584;2023-01-29T08:29:26;38.17;;;13.32;;
51686;SDS011;37774;52.192;4.584;2023-01-29T08:31:53;35.78;;;13.80;;
51686;SDS011;37774;52.192;4.584;2023-01-29T08:34:19;39.22;;;15.27;;
51686;SDS011;37774;52.192;4.584;2023-01-29T08:36:46;31.67;;;14.63;;
51686;SDS011;37774;52.192;4.584;2023-01-29T08:39:13;35.58;;;14.95;;
51686;SDS011;37774;52.192;4.584;2023-01-29T08:41:40;37.28;;;13.68;;
51686;SDS011;37774;52.192;4.584;2023-01-29T08:44:06;33.55;;;14.85;;
51686;SDS011;37774;52.192;4.584;2023-01-29T08:46:35;35.33;;;14.93;;
51686;SDS011;37774;52.192;4.584;2023-01-29T08:49:04;47.78;;;17.58;;
51686;SDS011;37774;52.192;4.584;2023-01-29T08:51:31;37.50;;;15.68;;
51686;SDS011;37774;52.192;4.584;2023-01-29T08:53:58;36.00;;;15.88;;
51686;SDS011;37774;52.192;4.584;2023-01-29T08:56:25;37.35;;;15.30;;
51686;SDS011;37774;52.192;4.584;2023-01-29T08:58:52;32.85;;;13.77;;
51686;SDS011;37774;52.192;4.584;2023-01-29T09:01:18;36.58;;;14.55;;
51686;SDS011;37774;52.192;4.584;2023-01-29T09:03:46;38.00;;;16.30;;
51686;SDS011;37774;52.192;4.584;2023-01-29T09:06:14;32.00;;;15.00;;
51686;SDS011;37774;52.192;4.584;2023-01-29T09:08:41;35.83;;;14.20;;
51686;SDS011;37774;52.192;4.584;2023-01-29T09:11:07;34.60;;;14.73;;
51686;SDS011;37774;52.192;4.584;2023-01-29T09:13:34;31.23;;;14.90;;
51686;SDS011;37774;52.192;4.584;2023-01-29T09:16:01;39.97;;;14.63;;
51686;SDS011;37774;52.192;4.584;2023-01-29T09:18:29;39.63;;;15.85;;
51686;SDS011;37774;52.192;4.584;2023-01-29T09:20:58;45.60;;;15.20;;
51686;SDS011;37774;52.192;4.584;2023-01-29T09:23:27;40.83;;;16.05;;
51686;SDS011;37774;52.192;4.584;2023-01-29T09:25:54;34.95;;;14.57;;
51686;SDS011;37774;52.192;4.584;2023-01-29T09:28:21;34.17;;;16.17;;
51686;SDS011;37774;52.192;4.584;2023-01-29T09:30:48;39.67;;;15.07;;
51686;SDS011;37774;52.192;4.584;2023-01-29T09:33:15;40.30;;;15.65;;
51686;SDS011;37774;52.192;4.584;2023-01-29T09:35:42;37.47;;;15.85;;
51686;SDS011;37774;52.192;4.584;2023-01-29T09:38:11;31.83;;;14.50;;
51686;SDS011;37774;52.192;4.584;2023-01-29T09:40:40;36.47;;;15.35;;
51686;SDS011;37774;52.192;4.584;2023-01-29T09:43:16;46.35;;;17.35;;
51686;SDS011;37774;52.192;4.584;2023-01-29T09:45:49;39.35;;;15.27;;
51686;SDS011;37774;52.192;4.584;2023-01-29T09:48:19;35.63;;;15.00;;
51686;SDS011;37774;52.192;4.584;2023-01-29T09:50:49;36.28;;;15.15;;
51686;SDS011;37774;52.192;4.584;2023-01-29T09:53:23;37.10;;;15.40;;
51686;SDS011;37774;52.192;4.584;2023-01-29T09:55:55;36.45;;;15.05;;
51686;SDS011;37774;52.192;4.584;2023-01-29T09:58:28;37.78;;;16.40;;
51686;SDS011;37774;52.192;4.584;2023-01-29T10:00:59;35.78;;;15.60;;
51686;SDS011;37774;52.192;4.584;2023-01-29T10:03:42;38.30;;;14.45;;
51686;SDS011;37774;52.192;4.584;2023-01-29T10:06:23;33.30;;;16.08;;
51686;SDS011;37774;52.192;4.584;2023-01-29T10:09:15;47.97;;;17.08;;
51686;SDS011;37774;52.192;4.584;2023-01-29T10:12:00;29.05;;;13.90;;
51686;SDS011;37774;52.192;4.584;2023-01-29T10:14:39;35.30;;;16.45;;
51686;SDS011;37774;52.192;4.584;2023-01-29T10:17:20;35.72;;;17.00;;
51686;SDS011;37774;52.192;4.584;2023-01-29T10:20:05;37.72;;;16.45;;
51686;SDS011;37774;52.192;4.584;2023-01-29T10:22:48;37.97;;;15.60;;
51686;SDS011;37774;52.192;4.584;2023-01-29T10:25:29;44.75;;;17.33;;
51686;SDS011;37774;52.192;4.584;2023-01-29T10:28:01;35.35;;;15.85;;
51686;SDS011;37774;52.192;4.584;2023-01-29T10:30:29;45.47;;;16.05;;
51686;SDS011;37774;52.192;4.584;2023-01-29T10:33:00;40.25;;;14.88;;
51686;SDS011;37774;52.192;4.584;2023-01-29T10:35:30;38.00;;;16.80;;
51686;SDS011;37774;52.192;4.584;2023-01-29T10:38:01;39.42;;;16.73;;
51686;SDS011;37774;52.192;4.584;2023-01-29T10:40:44;42.70;;;17.75;;
51686;SDS011;37774;52.192;4.584;2023-01-29T10:43:16;43.03;;;17.65;;
51686;SDS011;37774;52.192;4.584;2023-01-29T10:45:51;40.72;;;17.40;;
51686;SDS011;37774;52.192;4.584;2023-01-29T10:48:34;39.15;;;17.00;;
51686;SDS011;37774;52.192;4.584;2023-01-29T10:51:17;34.92;;;15.02;;
51686;SDS011;37774;52.192;4.584;2023-01-29T10:53:59;39.30;;;16.90;;
51686;SDS011;37774;52.192;4.584;2023-01-29T10:56:49;39.10;;;16.88;;
51686;SDS011;37774;52.192;4.584;2023-01-29T11:02:18;40.10;;;15.38;;
51686;SDS011;37774;52.192;4.584;2023-01-29T11:04:46;39.88;;;15.63;;
51686;SDS011;37774;52.192;4.584;2023-01-29T11:07:14;48.92;;;18.25;;
51686;SDS011;37774;52.192;4.584;2023-01-29T11:09:45;40.63;;;17.45;;
51686;SDS011;37774;52.192;4.584;2023-01-29T11:12:21;39.35;;;15.63;;
51686;SDS011;37774;52.192;4.584;2023-01-29T11:14:55;40.80;;;16.70;;
51686;SDS011;37774;52.192;4.584;2023-01-29T11:17:26;37.83;;;17.55;;
51686;SDS011;37774;52.192;4.584;2023-01-29T11:19:53;40.25;;;16.48;;
51686;SDS011;37774;52.192;4.584;2023-01-29T11:22:23;37.13;;;16.95;;
51686;SDS011;37774;52.192;4.584;2023-01-29T11:25:06;35.30;;;15.95;;
51686;SDS011;37774;52.192;4.584;2023-01-29T11:27:37;40.63;;;16.48;;
51686;SDS011;37774;52.192;4.584;2023-01-29T11:30:13;41.78;;;19.50;;
51686;SDS011;37774;52.192;4.584;2023-01-29T11:32:43;38.13;;;16.25;;
51686;SDS011;37774;52.192;4.584;2023-01-29T11:35:18;43.38;;;17.30;;
51686;SDS011;37774;52.192;4.584;2023-01-29T11:37:46;48.47;;;17.70;;
51686;SDS011;37774;52.192;4.584;2023-01-29T11:40:34;41.38;;;13.88;;
51686;SDS011;37774;52.192;4.584;2023-01-29T11:43:12;34.83;;;15.32;;
51686;SDS011;37774;52.192;4.584;2023-01-29T11:45:44;35.53;;;15.93;;
51686;SDS011;37774;52.192;4.584;2023-01-29T11:48:13;40.10;;;15.48;;
51686;SDS011;37774;52.192;4.584;2023-01-29T11:50:41;39.75;;;14.98;;
51686;SDS011;37774;52.192;4.584;2023-01-29T11:53:21;40.03;;;16.25;;
51686;SDS011;37774;52.192;4.584;2023-01-29T11:55:52;51.85;;;16.75;;
51686;SDS011;37774;52.192;4.584;2023-01-29T11:58:23;44.63;;;17.27;;
51686;SDS011;37774;52.192;4.584;2023-01-29T12:00:54;39.22;;;16.20;;
51686;SDS011;37774;52.192;4.584;2023-01-29T12:03:25;39.35;;;16.35;;
51686;SDS011;37774;52.192;4.584;2023-01-29T12:05:59;48.65;;;16.75;;
51686;SDS011;37774;52.192;4.584;2023-01-29T12:08:30;35.45;;;15.82;;
51686;SDS011;37774;52.192;4.584;2023-01-29T12:11:07;36.10;;;17.30;;
51686;SDS011;37774;52.192;4.584;2023-01-29T12:13:37;51.15;;;17.80;;
51686;SDS011;37774;52.192;4.584;2023-01-29T12:16:13;46.45;;;18.83;;
51686;SDS011;37774;52.192;4.584;2023-01-29T12:18:45;47.53;;;16.85;;
51686;SDS011;37774;52.192;4.584;2023-01-29T12:21:19;42.08;;;17.48;;
51686;SDS011;37774;52.192;4.584;2023-01-29T12:23:56;37.58;;;16.23;;
51686;SDS011;37774;52.192;4.584;2023-01-29T12:26:28;48.38;;;19.25;;
51686;SDS011;37774;52.192;4.584;2023-01-29T12:29:06;41.58;;;17.98;;
51686;SDS011;37774;52.192;4.584;2023-01-29T12:31:54;48.35;;;19.23;;
51686;SDS011;37774;52.192;4.584;2023-01-29T12:34:31;43.50;;;18.20;;
51686;SDS011;37774;52.192;4.584;2023-01-29T12:37:09;36.45;;;17.02;;
51686;SDS011;37774;52.192;4.584;2023-01-29T12:39:39;40.03;;;18.38;;
51686;SDS011;37774;52.192;4.584;2023-01-29T12:42:08;47.50;;;18.45;;
51686;SDS011;37774;52.192;4.584;2023-01-29T12:44:40;44.78;;;17.77;;
51686;SDS011;37774;52.192;4.584;2023-01-29T12:47:13;43.97;;;16.80;;
51686;SDS011;37774;52.192;4.584;2023-01-29T12:49:45;45.28;;;19.02;;
51686;SDS011;37774;52.192;4.584;2023-01-29T12:52:32;40.75;;;17.13;;
51686;SDS011;37774;52.192;4.584;2023-01-29T12:55:06;40.30;;;16.45;;
51686;SDS011;37774;52.192;4.584;2023-01-29T12:57:43;43.95;;;16.35;;
51686;SDS011;37774;52.192;4.584;2023-01-29T13:00:17;40.30;;;15.20;;
51686;SDS011;37774;52.192;4.584;2023-01-29T13:02:49;38.45;;;15.90;;
51686;SDS011;37774;52.192;4.584;2023-01-29T13:05:21;45.72;;;16.88;;
51686;SDS011;37774;52.192;4.584;2023-01-29T13:07:53;35.05;;;15.63;;
51686;SDS011;37774;52.192;4.584;2023-01-29T13:10:25;35.30;;;16.15;;
51686;SDS011;37774;52.192;4.584;2023-01-29T13:12:57;40.95;;;15.95;;
51686;SDS011;37774;52.192;4.584;2023-01-29T13:15:30;34.03;;;14.60;;
51686;SDS011;37774;52.192;4.584;2023-01-29T13:18:05;35.38;;;13.70;;
51686;SDS011;37774;52.192;4.584;2023-01-29T13:20:53;39.40;;;17.10;;
51686;SDS011;37774;52.192;4.584;2023-01-29T13:23:22;60.00;;;15.65;;
51686;SDS011;37774;52.192;4.584;2023-01-29T13:25:56;40.45;;;14.65;;
51686;SDS011;37774;52.192;4.584;2023-01-29T13:28:24;39.22;;;15.20;;
51686;SDS011;37774;52.192;4.584;2023-01-29T13:31:13;35.58;;;15.55;;
51686;SDS011;37774;52.192;4.584;2023-01-29T13:33:51;38.17;;;14.80;;
51686;SDS011;37774;52.192;4.584;2023-01-29T13:36:22;36.80;;;14.93;;
51686;SDS011;37774;52.192;4.584;2023-01-29T13:38:54;31.90;;;14.77;;
51686;SDS011;37774;52.192;4.584;2023-01-29T13:41:32;38.85;;;13.52;;
51686;SDS011;37774;52.192;4.584;2023-01-29T13:44:01;35.08;;;15.05;;
51686;SDS011;37774;52.192;4.584;2023-01-29T13:46:32;37.42;;;14.93;;
51686;SDS011;37774;52.192;4.584;2023-01-29T13:48:59;39.22;;;13.88;;
51686;SDS011;37774;52.192;4.584;2023-01-29T13:51:30;42.40;;;15.45;;
51686;SDS011;37774;52.192;4.584;2023-01-29T13:54:01;29.73;;;13.18;;
51686;SDS011;37774;52.192;4.584;2023-01-29T13:56:41;34.70;;;14.98;;
51686;SDS011;37774;52.192;4.584;2023-01-29T13:59:22;36.10;;;14.18;;
51686;SDS011;37774;52.192;4.584;2023-01-29T14:02:01;37.53;;;15.60;;
51686;SDS011;37774;52.192;4.584;2023-01-29T14:04:29;29.98;;;14.02;;
51686;SDS011;37774;52.192;4.584;2023-01-29T14:06:58;26.63;;;11.50;;
51686;SDS011;37774;52.192;4.584;2023-01-29T14:09:30;29.98;;;12.80;;
51686;SDS011;37774;52.192;4.584;2023-01-29T14:12:30;28.20;;;10.88;;
51686;SDS011;37774;52.192;4.584;2023-01-29T14:15:04;32.35;;;12.43;;
51686;SDS011;37774;52.192;4.584;2023-01-29T14:17:53;19.67;;;9.80;;
51686;SDS011;37774;52.192;4.584;2023-01-29T14:20:28;31.88;;;12.38;;
51686;SDS011;37774;52.192;4.584;2023-01-29T14:22:58;35.33;;;13.52;;
51686;SDS011;37774;52.192;4.584;2023-01-29T14:25:28;37.92;;;12.48;;
51686;SDS011;37774;52.192;4.584;2023-01-29T14:27:57;38.20;;;13.25;;
51686;SDS011;37774;52.192;4.584;2023-01-29T14:30:25;35.20;;;12.85;;
51686;SDS011;37774;52.192;4.584;2023-01-29T14:32:57;31.27;;;13.35;;
51686;SDS011;37774;52.192;4.584;2023-01-29T14:35:26;31.58;;;13.13;;
51686;SDS011;37774;52.192;4.584;2023-01-29T14:37:58;27.10;;;12.50;;
51686;SDS011;37774;52.192;4.584;2023-01-29T14:40:28;35.42;;;13.68;;
51686;SDS011;37774;52.192;4.584;2023-01-29T14:42:57;34.30;;;13.90;;
51686;SDS011;37774;52.192;4.584;2023-01-29T14:45:27;27.05;;;12.35;;
51686;SDS011;37774;52.192;4.584;2023-01-29T14:48:00;40.50;;;15.85;;
51686;SDS011;37774;52.192;4.584;2023-01-29T14:50:49;33.45;;;14.35;;
51686;SDS011;37774;52.192;4.584;2023-01-29T14:53:39;38.30;;;14.60;;
51686;SDS011;37774;52.192;4.584;2023-01-29T14:56:12;31.42;;;14.48;;